sensor_id;sensor_type;location;lat;lon;timestamp;temperature;humidity
9414;DHT22;4746;35.664;139.738;2023-11-19T00:00:19;12.80;67.20
9414;DHT22;4746;35.664;139.738;2023-11-19T00:02:47;12.90;64.70
9414;DHT22;4746;35.664;139.738;2023-11-19T00:05:14;12.90;61.00
9414;DHT22;4746;35.664;139.738;2023-11-19T00:07:42;12.90;61.60
9414;DHT22;4746;35.664;139.738;2023-11-19T00:10:10;12.90;60.80
9414;DHT22;4746;35.664;139.738;2023-11-19T00:12:43;13.00;60.60
9414;DHT22;4746;35.664;139.738;2023-11-19T00:15:16;13.00;60.60
9414;DHT22;4746;35.664;139.738;2023-11-19T00:17:45;13.10;59.40
9414;DHT22;4746;35.664;139.738;2023-11-19T00:20:20;13.10;58.50
9414;DHT22;4746;35.664;139.738;2023-11-19T00:22:50;13.10;57.60
9414;DHT22;4746;35.664;139.738;2023-11-19T00:25:19;13.20;56.20
9414;DHT22;4746;35.664;139.738;2023-11-19T00:27:51;13.20;54.40
9414;DHT22;4746;35.664;139.738;2023-11-19T00:30:19;13.30;55.20
9414;DHT22;4746;35.664;139.738;2023-11-19T00:32:49;13.30;54.30
9414;DHT22;4746;35.664;139.738;2023-11-19T00:35:18;13.30;53.20
9414;DHT22;4746;35.664;139.738;2023-11-19T00:37:46;13.40;53.30
9414;DHT22;4746;35.664;139.738;2023-11-19T00:40:14;13.40;53.70
9414;DHT22;4746;35.664;139.738;2023-11-19T00:42:43;13.50;53.60
9414;DHT22;4746;35.664;139.738;2023-11-19T00:45:11;13.50;53.60
9414;DHT22;4746;35.664;139.738;2023-11-19T00:47:39;13.60;54.00
9414;DHT22;4746;35.664;139.738;2023-11-19T00:50:07;13.70;54.10
9414;DHT22;4746;35.664;139.738;2023-11-19T00:52:40;13.70;53.30
9414;DHT22;4746;35.664;139.738;2023-11-19T00:55:08;13.80;53.50
9414;DHT22;4746;35.664;139.738;2023-11-19T00:57:35;13.80;52.60
9414;DHT22;4746;35.664;139.738;2023-11-19T01:00:04;13.90;52.80
9414;DHT22;4746;35.664;139.738;2023-11-19T01:02:58;14.00;53.40
9414;DHT22;4746;35.664;139.738;2023-11-19T01:05:26;14.00;53.00
9414;DHT22;4746;35.664;139.738;2023-11-19T01:07:54;14.10;52.40
9414;DHT22;4746;35.664;139.738;2023-11-19T01:10:25;14.20;52.50
9414;DHT22;4746;35.664;139.738;2023-11-19T01:12:52;14.20;52.70
9414;DHT22;4746;35.664;139.738;2023-11-19T01:15:20;14.30;52.90
9414;DHT22;4746;35.664;139.738;2023-11-19T01:17:49;14.40;51.70
9414;DHT22;4746;35.664;139.738;2023-11-19T01:20:16;14.40;51.80
9414;DHT22;4746;35.664;139.738;2023-11-19T01:22:44;14.50;52.00
9414;DHT22;4746;35.664;139.738;2023-11-19T01:25:12;14.50;49.40
9414;DHT22;4746;35.664;139.738;2023-11-19T01:27:40;14.40;50.20
9414;DHT22;4746;35.664;139.738;2023-11-19T01:30:08;14.60;50.80
9414;DHT22;4746;35.664;139.738;2023-11-19T01:32:39;14.70;50.70
9414;DHT22;4746;35.664;139.738;2023-11-19T01:35:07;14.70;50.30
9414;DHT22;4746;35.664;139.738;2023-11-19T01:37:37;14.90;50.60
9414;DHT22;4746;35.664;139.738;2023-11-19T01:40:04;15.00;50.80
9414;DHT22;4746;35.664;139.738;2023-11-19T01:42:38;15.10;49.90
9414;DHT22;4746;35.664;139.738;2023-11-19T01:45:06;15.20;47.60
9414;DHT22;4746;35.664;139.738;2023-11-19T01:47:35;15.30;48.40
9414;DHT22;4746;35.664;139.738;2023-11-19T01:50:06;15.40;47.90
9414;DHT22;4746;35.664;139.738;2023-11-19T01:52:36;15.50;47.40
9414;DHT22;4746;35.664;139.738;2023-11-19T01:55:06;15.60;47.10
9414;DHT22;4746;35.664;139.738;2023-11-19T01:57:37;15.70;46.70
9414;DHT22;4746;35.664;139.738;2023-11-19T02:00:08;15.80;47.10
9414;DHT22;4746;35.664;139.738;2023-11-19T02:02:41;15.90;46.70
9414;DHT22;4746;35.664;139.738;2023-11-19T02:05:10;16.00;46.10
9414;DHT22;4746;35.664;139.738;2023-11-19T02:07:39;16.20;45.30
9414;DHT22;4746;35.664;139.738;2023-11-19T02:10:07;16.30;44.20
9414;DHT22;4746;35.664;139.738;2023-11-19T02:12:41;16.50;44.90
9414;DHT22;4746;35.664;139.738;2023-11-19T02:15:11;16.70;44.60
9414;DHT22;4746;35.664;139.738;2023-11-19T02:17:39;17.00;45.20
9414;DHT22;4746;35.664;139.738;2023-11-19T02:20:08;17.30;43.20
9414;DHT22;4746;35.664;139.738;2023-11-19T02:22:38;17.40;42.60
9414;DHT22;4746;35.664;139.738;2023-11-19T02:25:24;17.60;42.80
9414;DHT22;4746;35.664;139.738;2023-11-19T02:27:59;17.70;42.10
9414;DHT22;4746;35.664;139.738;2023-11-19T02:30:28;17.80;41.40
9414;DHT22;4746;35.664;139.738;2023-11-19T02:33:01;18.00;41.70
9414;DHT22;4746;35.664;139.738;2023-11-19T02:35:32;18.00;39.50
9414;DHT22;4746;35.664;139.738;2023-11-19T02:38:10;18.10;39.60
9414;DHT22;4746;35.664;139.738;2023-11-19T02:40:40;18.10;39.80
9414;DHT22;4746;35.664;139.738;2023-11-19T02:43:09;18.30;40.60
9414;DHT22;4746;35.664;139.738;2023-11-19T02:45:36;18.50;41.00
9414;DHT22;4746;35.664;139.738;2023-11-19T02:48:04;18.70;41.10
9414;DHT22;4746;35.664;139.738;2023-11-19T02:50:32;19.00;40.90
9414;DHT22;4746;35.664;139.738;2023-11-19T02:53:00;19.20;40.30
9414;DHT22;4746;35.664;139.738;2023-11-19T02:55:31;19.40;39.50
9414;DHT22;4746;35.664;139.738;2023-11-19T02:58:04;19.60;39.50
9414;DHT22;4746;35.664;139.738;2023-11-19T03:00:49;19.90;39.60
9414;DHT22;4746;35.664;139.738;2023-11-19T03:03:28;20.10;38.00
9414;DHT22;4746;35.664;139.738;2023-11-19T03:06:07;20.20;36.40
9414;DHT22;4746;35.664;139.738;2023-11-19T03:08:36;20.30;37.30
9414;DHT22;4746;35.664;139.738;2023-11-19T03:11:03;20.40;36.90
9414;DHT22;4746;35.664;139.738;2023-11-19T03:13:32;20.60;36.90
9414;DHT22;4746;35.664;139.738;2023-11-19T03:16:00;20.80;36.20
9414;DHT22;4746;35.664;139.738;2023-11-19T03:18:27;21.00;36.40
9414;DHT22;4746;35.664;139.738;2023-11-19T03:20:55;21.20;35.30
9414;DHT22;4746;35.664;139.738;2023-11-19T03:23:25;21.30;33.80
9414;DHT22;4746;35.664;139.738;2023-11-19T03:25:56;21.20;33.30
9414;DHT22;4746;35.664;139.738;2023-11-19T03:28:24;21.10;33.60
9414;DHT22;4746;35.664;139.738;2023-11-19T03:30:52;21.10;33.90
9414;DHT22;4746;35.664;139.738;2023-11-19T03:33:19;21.20;33.90
9414;DHT22;4746;35.664;139.738;2023-11-19T03:35:47;21.40;34.30
9414;DHT22;4746;35.664;139.738;2023-11-19T03:38:14;21.80;34.40
9414;DHT22;4746;35.664;139.738;2023-11-19T03:40:42;22.00;33.70
9414;DHT22;4746;35.664;139.738;2023-11-19T03:43:09;22.10;32.30
9414;DHT22;4746;35.664;139.738;2023-11-19T03:45:39;22.30;31.20
9414;DHT22;4746;35.664;139.738;2023-11-19T03:48:06;22.50;31.50
9414;DHT22;4746;35.664;139.738;2023-11-19T03:50:34;22.80;32.20
9414;DHT22;4746;35.664;139.738;2023-11-19T03:53:01;23.20;32.10
9414;DHT22;4746;35.664;139.738;2023-11-19T03:55:31;23.60;32.20
9414;DHT22;4746;35.664;139.738;2023-11-19T03:57:59;24.00;32.30
9414;DHT22;4746;35.664;139.738;2023-11-19T04:00:26;24.40;31.60
9414;DHT22;4746;35.664;139.738;2023-11-19T04:02:54;24.80;31.70
9414;DHT22;4746;35.664;139.738;2023-11-19T04:05:21;25.30;30.70
9414;DHT22;4746;35.664;139.738;2023-11-19T04:07:49;25.70;30.00
9414;DHT22;4746;35.664;139.738;2023-11-19T04:10:16;26.30;29.70
9414;DHT22;4746;35.664;139.738;2023-11-19T04:12:44;26.80;28.60
9414;DHT22;4746;35.664;139.738;2023-11-19T04:15:14;27.30;27.90
9414;DHT22;4746;35.664;139.738;2023-11-19T04:17:42;27.50;27.00
9414;DHT22;4746;35.664;139.738;2023-11-19T04:20:10;28.00;25.20
9414;DHT22;4746;35.664;139.738;2023-11-19T04:22:39;28.40;24.30
9414;DHT22;4746;35.664;139.738;2023-11-19T04:25:09;28.90;22.90
9414;DHT22;4746;35.664;139.738;2023-11-19T04:27:37;29.30;21.90
9414;DHT22;4746;35.664;139.738;2023-11-19T04:30:05;29.70;20.40
9414;DHT22;4746;35.664;139.738;2023-11-19T04:32:37;30.20;19.60
9414;DHT22;4746;35.664;139.738;2023-11-19T04:35:05;30.60;19.10
9414;DHT22;4746;35.664;139.738;2023-11-19T04:37:33;30.90;18.40
9414;DHT22;4746;35.664;139.738;2023-11-19T04:40:01;31.20;18.20
9414;DHT22;4746;35.664;139.738;2023-11-19T04:42:29;31.50;17.90
9414;DHT22;4746;35.664;139.738;2023-11-19T04:44:58;31.70;17.00
9414;DHT22;4746;35.664;139.738;2023-11-19T04:47:26;32.00;17.10
9414;DHT22;4746;35.664;139.738;2023-11-19T04:49:53;32.20;16.60
9414;DHT22;4746;35.664;139.738;2023-11-19T04:52:20;32.30;16.30
9414;DHT22;4746;35.664;139.738;2023-11-19T04:54:48;32.60;16.50
9414;DHT22;4746;35.664;139.738;2023-11-19T04:57:16;32.70;15.70
9414;DHT22;4746;35.664;139.738;2023-11-19T04:59:44;32.90;15.20
9414;DHT22;4746;35.664;139.738;2023-11-19T05:02:13;33.10;15.70
9414;DHT22;4746;35.664;139.738;2023-11-19T05:04:45;33.40;15.20
9414;DHT22;4746;35.664;139.738;2023-11-19T05:07:13;33.60;14.70
9414;DHT22;4746;35.664;139.738;2023-11-19T05:09:40;33.90;14.80
9414;DHT22;4746;35.664;139.738;2023-11-19T05:12:09;34.20;14.40
9414;DHT22;4746;35.664;139.738;2023-11-19T05:14:38;34.20;14.60
9414;DHT22;4746;35.664;139.738;2023-11-19T05:17:06;34.20;14.40
9414;DHT22;4746;35.664;139.738;2023-11-19T05:19:35;34.10;14.40
9414;DHT22;4746;35.664;139.738;2023-11-19T05:22:03;33.90;14.30
9414;DHT22;4746;35.664;139.738;2023-11-19T05:24:31;34.00;14.50
9414;DHT22;4746;35.664;139.738;2023-11-19T05:27:02;34.40;14.90
9414;DHT22;4746;35.664;139.738;2023-11-19T05:29:32;34.70;15.00
9414;DHT22;4746;35.664;139.738;2023-11-19T05:32:00;34.80;14.80
9414;DHT22;4746;35.664;139.738;2023-11-19T05:34:28;34.80;15.00
9414;DHT22;4746;35.664;139.738;2023-11-19T05:36:55;35.00;14.60
9414;DHT22;4746;35.664;139.738;2023-11-19T05:39:24;35.10;14.60
9414;DHT22;4746;35.664;139.738;2023-11-19T05:41:51;35.40;14.10
9414;DHT22;4746;35.664;139.738;2023-11-19T05:44:19;35.40;14.00
9414;DHT22;4746;35.664;139.738;2023-11-19T05:46:46;35.50;13.80
9414;DHT22;4746;35.664;139.738;2023-11-19T05:49:14;35.60;13.30
9414;DHT22;4746;35.664;139.738;2023-11-19T05:51:41;35.80;13.40
9414;DHT22;4746;35.664;139.738;2023-11-19T05:54:09;36.00;12.90
9414;DHT22;4746;35.664;139.738;2023-11-19T05:56:37;36.30;12.40
9414;DHT22;4746;35.664;139.738;2023-11-19T05:59:05;36.10;12.20
9414;DHT22;4746;35.664;139.738;2023-11-19T06:01:41;36.00;12.30
9414;DHT22;4746;35.664;139.738;2023-11-19T06:04:09;36.10;11.50
9414;DHT22;4746;35.664;139.738;2023-11-19T06:06:36;36.40;10.80
9414;DHT22;4746;35.664;139.738;2023-11-19T06:09:04;36.50;10.70
9414;DHT22;4746;35.664;139.738;2023-11-19T06:11:33;36.40;10.70
9414;DHT22;4746;35.664;139.738;2023-11-19T06:14:02;36.60;10.60
9414;DHT22;4746;35.664;139.738;2023-11-19T06:16:31;36.70;10.40
9414;DHT22;4746;35.664;139.738;2023-11-19T06:18:59;36.70;10.00
9414;DHT22;4746;35.664;139.738;2023-11-19T06:21:26;36.90;9.90
9414;DHT22;4746;35.664;139.738;2023-11-19T06:23:54;36.70;9.80
9414;DHT22;4746;35.664;139.738;2023-11-19T06:26:21;36.70;9.80
9414;DHT22;4746;35.664;139.738;2023-11-19T06:28:49;36.60;9.50
9414;DHT22;4746;35.664;139.738;2023-11-19T06:31:17;36.50;9.60
9414;DHT22;4746;35.664;139.738;2023-11-19T06:33:44;36.50;9.50
9414;DHT22;4746;35.664;139.738;2023-11-19T06:36:16;36.50;9.30
9414;DHT22;4746;35.664;139.738;2023-11-19T06:38:43;36.30;9.10
9414;DHT22;4746;35.664;139.738;2023-11-19T06:41:11;36.20;9.20
9414;DHT22;4746;35.664;139.738;2023-11-19T06:43:39;36.20;8.90
9414;DHT22;4746;35.664;139.738;2023-11-19T06:46:14;36.20;9.00
9414;DHT22;4746;35.664;139.738;2023-11-19T06:48:43;35.90;9.10
9414;DHT22;4746;35.664;139.738;2023-11-19T06:51:11;35.80;9.00
9414;DHT22;4746;35.664;139.738;2023-11-19T06:53:39;35.60;8.90
9414;DHT22;4746;35.664;139.738;2023-11-19T06:56:18;35.20;9.00
9414;DHT22;4746;35.664;139.738;2023-11-19T06:58:50;34.40;9.20
9414;DHT22;4746;35.664;139.738;2023-11-19T07:01:18;33.40;9.70
9414;DHT22;4746;35.664;139.738;2023-11-19T07:03:47;32.40;10.00
9414;DHT22;4746;35.664;139.738;2023-11-19T07:06:15;31.20;10.30
9414;DHT22;4746;35.664;139.738;2023-11-19T07:08:42;30.10;10.90
9414;DHT22;4746;35.664;139.738;2023-11-19T07:11:13;29.20;11.50
9414;DHT22;4746;35.664;139.738;2023-11-19T07:13:42;28.30;11.90
9414;DHT22;4746;35.664;139.738;2023-11-19T07:16:14;27.60;12.40
9414;DHT22;4746;35.664;139.738;2023-11-19T07:18:44;26.90;12.90
9414;DHT22;4746;35.664;139.738;2023-11-19T07:21:11;26.20;13.50
9414;DHT22;4746;35.664;139.738;2023-11-19T07:23:40;25.70;14.00
9414;DHT22;4746;35.664;139.738;2023-11-19T07:26:08;25.30;14.40
9414;DHT22;4746;35.664;139.738;2023-11-19T07:28:35;24.80;14.80
9414;DHT22;4746;35.664;139.738;2023-11-19T07:31:03;24.40;15.20
9414;DHT22;4746;35.664;139.738;2023-11-19T07:33:34;24.00;15.40
9414;DHT22;4746;35.664;139.738;2023-11-19T07:36:01;23.70;16.00
9414;DHT22;4746;35.664;139.738;2023-11-19T07:38:29;23.40;16.40
9414;DHT22;4746;35.664;139.738;2023-11-19T07:40:56;23.10;16.70
9414;DHT22;4746;35.664;139.738;2023-11-19T07:43:24;22.80;17.10
9414;DHT22;4746;35.664;139.738;2023-11-19T07:45:54;22.60;17.50
9414;DHT22;4746;35.664;139.738;2023-11-19T07:48:21;22.40;17.80
9414;DHT22;4746;35.664;139.738;2023-11-19T07:50:50;22.10;18.20
9414;DHT22;4746;35.664;139.738;2023-11-19T07:53:17;21.90;18.70
9414;DHT22;4746;35.664;139.738;2023-11-19T07:55:46;21.80;18.90
9414;DHT22;4746;35.664;139.738;2023-11-19T07:58:13;21.60;19.10
9414;DHT22;4746;35.664;139.738;2023-11-19T08:00:41;21.40;19.10
9414;DHT22;4746;35.664;139.738;2023-11-19T08:03:08;21.20;19.10
9414;DHT22;4746;35.664;139.738;2023-11-19T08:05:36;21.10;19.30
9414;DHT22;4746;35.664;139.738;2023-11-19T08:08:04;20.90;19.30
9414;DHT22;4746;35.664;139.738;2023-11-19T08:10:31;20.80;19.30
9414;DHT22;4746;35.664;139.738;2023-11-19T08:12:59;20.60;19.20
9414;DHT22;4746;35.664;139.738;2023-11-19T08:15:27;20.50;19.20
9414;DHT22;4746;35.664;139.738;2023-11-19T08:17:55;20.30;19.30
9414;DHT22;4746;35.664;139.738;2023-11-19T08:20:23;20.20;19.10
9414;DHT22;4746;35.664;139.738;2023-11-19T08:22:50;20.10;19.60
9414;DHT22;4746;35.664;139.738;2023-11-19T08:25:18;19.90;20.70
9414;DHT22;4746;35.664;139.738;2023-11-19T08:27:45;19.80;21.70
9414;DHT22;4746;35.664;139.738;2023-11-19T08:30:14;19.80;23.20
9414;DHT22;4746;35.664;139.738;2023-11-19T08:32:42;19.60;24.90
9414;DHT22;4746;35.664;139.738;2023-11-19T08:35:09;19.50;26.40
9414;DHT22;4746;35.664;139.738;2023-11-19T08:37:37;19.40;27.70
9414;DHT22;4746;35.664;139.738;2023-11-19T08:40:05;19.30;29.20
9414;DHT22;4746;35.664;139.738;2023-11-19T08:42:33;19.20;30.00
9414;DHT22;4746;35.664;139.738;2023-11-19T08:45:01;19.10;30.50
9414;DHT22;4746;35.664;139.738;2023-11-19T08:47:29;18.90;31.20
9414;DHT22;4746;35.664;139.738;2023-11-19T08:49:57;18.80;31.40
9414;DHT22;4746;35.664;139.738;2023-11-19T08:52:24;18.70;34.30
9414;DHT22;4746;35.664;139.738;2023-11-19T08:54:52;18.60;35.60
9414;DHT22;4746;35.664;139.738;2023-11-19T08:57:19;18.60;36.70
9414;DHT22;4746;35.664;139.738;2023-11-19T08:59:47;18.50;36.70
9414;DHT22;4746;35.664;139.738;2023-11-19T09:02:14;18.40;39.30
9414;DHT22;4746;35.664;139.738;2023-11-19T09:04:42;18.30;40.80
9414;DHT22;4746;35.664;139.738;2023-11-19T09:07:10;18.20;42.50
9414;DHT22;4746;35.664;139.738;2023-11-19T09:09:51;18.20;45.30
9414;DHT22;4746;35.664;139.738;2023-11-19T09:12:19;18.10;49.70
9414;DHT22;4746;35.664;139.738;2023-11-19T09:14:46;18.00;54.60
9414;DHT22;4746;35.664;139.738;2023-11-19T09:17:15;18.00;62.20
9414;DHT22;4746;35.664;139.738;2023-11-19T09:19:44;17.90;72.50
9414;DHT22;4746;35.664;139.738;2023-11-19T09:22:12;17.90;93.10
9414;DHT22;4746;35.664;139.738;2023-11-19T09:24:39;17.80;99.90
9414;DHT22;4746;35.664;139.738;2023-11-19T09:27:07;17.80;99.90
9414;DHT22;4746;35.664;139.738;2023-11-19T09:29:34;17.70;99.90
9414;DHT22;4746;35.664;139.738;2023-11-19T09:32:02;17.60;99.90
9414;DHT22;4746;35.664;139.738;2023-11-19T09:34:30;17.50;99.90
9414;DHT22;4746;35.664;139.738;2023-11-19T09:36:58;17.40;99.90
9414;DHT22;4746;35.664;139.738;2023-11-19T09:39:25;17.40;99.90
9414;DHT22;4746;35.664;139.738;2023-11-19T09:41:54;17.30;99.90
9414;DHT22;4746;35.664;139.738;2023-11-19T09:44:22;17.20;99.90
9414;DHT22;4746;35.664;139.738;2023-11-19T09:46:50;17.10;99.90
9414;DHT22;4746;35.664;139.738;2023-11-19T09:49:23;17.10;99.90
9414;DHT22;4746;35.664;139.738;2023-11-19T09:51:54;17.10;99.90
9414;DHT22;4746;35.664;139.738;2023-11-19T09:54:22;17.10;99.90
9414;DHT22;4746;35.664;139.738;2023-11-19T09:56:50;17.10;99.90
9414;DHT22;4746;35.664;139.738;2023-11-19T09:59:18;17.00;99.90
9414;DHT22;4746;35.664;139.738;2023-11-19T10:01:46;17.00;99.90
9414;DHT22;4746;35.664;139.738;2023-11-19T10:04:16;16.90;99.90
9414;DHT22;4746;35.664;139.738;2023-11-19T10:06:46;16.90;99.90
9414;DHT22;4746;35.664;139.738;2023-11-19T10:09:14;16.90;99.90
9414;DHT22;4746;35.664;139.738;2023-11-19T10:11:41;16.80;99.90
9414;DHT22;4746;35.664;139.738;2023-11-19T10:14:09;16.80;99.90
9414;DHT22;4746;35.664;139.738;2023-11-19T10:16:38;16.80;99.90
9414;DHT22;4746;35.664;139.738;2023-11-19T10:19:07;16.80;99.90
9414;DHT22;4746;35.664;139.738;2023-11-19T10:21:39;16.80;99.90
9414;DHT22;4746;35.664;139.738;2023-11-19T10:24:06;16.80;99.90
9414;DHT22;4746;35.664;139.738;2023-11-19T10:26:36;16.80;99.90
9414;DHT22;4746;35.664;139.738;2023-11-19T10:29:04;16.80;99.90
9414;DHT22;4746;35.664;139.738;2023-11-19T10:31:32;16.80;99.90
9414;DHT22;4746;35.664;139.738;2023-11-19T10:34:00;16.80;99.90
9414;DHT22;4746;35.664;139.738;2023-11-19T10:36:40;16.70;99.90
9414;DHT22;4746;35.664;139.738;2023-11-19T10:39:07;16.70;99.90
9414;DHT22;4746;35.664;139.738;2023-11-19T10:41:35;16.70;99.90
9414;DHT22;4746;35.664;139.738;2023-11-19T10:44:03;16.70;99.90
9414;DHT22;4746;35.664;139.738;2023-11-19T10:46:41;16.70;99.90
9414;DHT22;4746;35.664;139.738;2023-11-19T10:49:10;16.60;99.90
9414;DHT22;4746;35.664;139.738;2023-11-19T10:51:42;16.50;99.90
9414;DHT22;4746;35.664;139.738;2023-11-19T10:54:19;16.50;99.90
9414;DHT22;4746;35.664;139.738;2023-11-19T10:56:54;16.50;99.90
9414;DHT22;4746;35.664;139.738;2023-11-19T10:59:28;16.50;99.90
9414;DHT22;4746;35.664;139.738;2023-11-19T11:02:05;16.50;99.90
9414;DHT22;4746;35.664;139.738;2023-11-19T11:04:40;16.50;99.90
9414;DHT22;4746;35.664;139.738;2023-11-19T11:07:09;16.50;99.90
9414;DHT22;4746;35.664;139.738;2023-11-19T11:09:37;16.40;99.90
9414;DHT22;4746;35.664;139.738;2023-11-19T11:12:06;16.40;99.90
9414;DHT22;4746;35.664;139.738;2023-11-19T11:14:38;16.40;99.90
9414;DHT22;4746;35.664;139.738;2023-11-19T11:17:09;16.40;99.90
9414;DHT22;4746;35.664;139.738;2023-11-19T11:19:42;16.40;99.90
9414;DHT22;4746;35.664;139.738;2023-11-19T11:22:11;16.40;99.90
9414;DHT22;4746;35.664;139.738;2023-11-19T11:25:06;16.40;99.90
9414;DHT22;4746;35.664;139.738;2023-11-19T11:37:19;16.40;99.90
9414;DHT22;4746;35.664;139.738;2023-11-19T11:39:57;16.40;99.90
9414;DHT22;4746;35.664;139.738;2023-11-19T11:45:10;16.40;99.90
9414;DHT22;4746;35.664;139.738;2023-11-19T11:50:17;16.40;99.90
9414;DHT22;4746;35.664;139.738;2023-11-19T11:53:18;16.40;99.90
9414;DHT22;4746;35.664;139.738;2023-11-19T11:58:29;16.40;99.90
9414;DHT22;4746;35.664;139.738;2023-11-19T12:00:58;16.40;99.90
9414;DHT22;4746;35.664;139.738;2023-11-19T12:03:32;16.30;99.90
9414;DHT22;4746;35.664;139.738;2023-11-19T12:06:02;16.30;99.90
9414;DHT22;4746;35.664;139.738;2023-11-19T12:08:35;16.30;99.90
9414;DHT22;4746;35.664;139.738;2023-11-19T12:11:02;16.30;99.90
9414;DHT22;4746;35.664;139.738;2023-11-19T12:13:54;16.30;99.90
9414;DHT22;4746;35.664;139.738;2023-11-19T12:16:25;16.30;99.90
9414;DHT22;4746;35.664;139.738;2023-11-19T12:18:54;16.30;99.90
9414;DHT22;4746;35.664;139.738;2023-11-19T12:21:30;16.30;99.90
9414;DHT22;4746;35.664;139.738;2023-11-19T12:23:59;16.30;99.90
9414;DHT22;4746;35.664;139.738;2023-11-19T12:26:40;16.30;99.90
9414;DHT22;4746;35.664;139.738;2023-11-19T12:29:11;16.30;99.90
9414;DHT22;4746;35.664;139.738;2023-11-19T12:31:38;16.30;99.90
9414;DHT22;4746;35.664;139.738;2023-11-19T12:34:11;16.30;99.90
9414;DHT22;4746;35.664;139.738;2023-11-19T12:36:39;16.20;99.90
9414;DHT22;4746;35.664;139.738;2023-11-19T12:39:07;16.20;99.90
9414;DHT22;4746;35.664;139.738;2023-11-19T12:41:50;16.10;99.90
9414;DHT22;4746;35.664;139.738;2023-11-19T12:44:18;16.10;99.90
9414;DHT22;4746;35.664;139.738;2023-11-19T12:46:46;16.00;99.90
9414;DHT22;4746;35.664;139.738;2023-11-19T12:49:13;16.00;99.90
9414;DHT22;4746;35.664;139.738;2023-11-19T12:51:41;16.00;99.90
9414;DHT22;4746;35.664;139.738;2023-11-19T12:54:08;15.90;99.90
9414;DHT22;4746;35.664;139.738;2023-11-19T12:56:36;15.90;99.90
9414;DHT22;4746;35.664;139.738;2023-11-19T12:59:13;15.70;99.90
9414;DHT22;4746;35.664;139.738;2023-11-19T13:01:40;15.60;99.90
9414;DHT22;4746;35.664;139.738;2023-11-19T13:04:18;15.50;99.90
9414;DHT22;4746;35.664;139.738;2023-11-19T13:06:46;15.40;99.90
9414;DHT22;4746;35.664;139.738;2023-11-19T13:09:27;15.30;99.90
9414;DHT22;4746;35.664;139.738;2023-11-19T13:11:56;15.20;99.90
9414;DHT22;4746;35.664;139.738;2023-11-19T13:14:36;15.20;99.90
9414;DHT22;4746;35.664;139.738;2023-11-19T13:17:04;15.20;99.90
9414;DHT22;4746;35.664;139.738;2023-11-19T13:19:32;15.10;99.90
9414;DHT22;4746;35.664;139.738;2023-11-19T13:21:59;14.90;99.90
9414;DHT22;4746;35.664;139.738;2023-11-19T13:24:28;14.90;99.90
9414;DHT22;4746;35.664;139.738;2023-11-19T13:26:56;14.80;99.90
9414;DHT22;4746;35.664;139.738;2023-11-19T13:29:24;14.70;99.90
9414;DHT22;4746;35.664;139.738;2023-11-19T13:31:52;14.50;99.90
9414;DHT22;4746;35.664;139.738;2023-11-19T13:34:19;14.40;99.90
9414;DHT22;4746;35.664;139.738;2023-11-19T13:36:47;14.30;99.90
9414;DHT22;4746;35.664;139.738;2023-11-19T13:39:15;14.30;99.90
9414;DHT22;4746;35.664;139.738;2023-11-19T13:41:49;14.20;99.90
9414;DHT22;4746;35.664;139.738;2023-11-19T13:44:17;14.10;99.90
9414;DHT22;4746;35.664;139.738;2023-11-19T13:46:47;14.00;99.90
9414;DHT22;4746;35.664;139.738;2023-11-19T13:49:15;14.00;99.90
9414;DHT22;4746;35.664;139.738;2023-11-19T13:51:45;14.10;99.90
9414;DHT22;4746;35.664;139.738;2023-11-19T13:54:12;14.10;99.90
9414;DHT22;4746;35.664;139.738;2023-11-19T13:56:40;14.10;99.90
9414;DHT22;4746;35.664;139.738;2023-11-19T13:59:09;14.00;99.90
9414;DHT22;4746;35.664;139.738;2023-11-19T14:01:36;13.90;99.90
9414;DHT22;4746;35.664;139.738;2023-11-19T14:04:04;13.90;99.90
9414;DHT22;4746;35.664;139.738;2023-11-19T14:06:32;13.80;99.90
9414;DHT22;4746;35.664;139.738;2023-11-19T14:09:00;13.80;99.90
9414;DHT22;4746;35.664;139.738;2023-11-19T14:11:27;13.80;99.90
9414;DHT22;4746;35.664;139.738;2023-11-19T14:13:55;13.80;99.90
9414;DHT22;4746;35.664;139.738;2023-11-19T14:16:25;13.80;99.90
9414;DHT22;4746;35.664;139.738;2023-11-19T14:18:53;13.80;99.90
9414;DHT22;4746;35.664;139.738;2023-11-19T14:21:21;13.80;99.90
9414;DHT22;4746;35.664;139.738;2023-11-19T14:23:49;13.80;99.90
9414;DHT22;4746;35.664;139.738;2023-11-19T14:26:16;13.70;99.90
9414;DHT22;4746;35.664;139.738;2023-11-19T14:28:44;13.70;99.90
9414;DHT22;4746;35.664;139.738;2023-11-19T14:31:11;13.70;99.90
9414;DHT22;4746;35.664;139.738;2023-11-19T14:33:39;13.70;99.90
9414;DHT22;4746;35.664;139.738;2023-11-19T14:36:07;13.60;99.90
9414;DHT22;4746;35.664;139.738;2023-11-19T14:38:35;13.60;99.90
9414;DHT22;4746;35.664;139.738;2023-11-19T14:41:02;13.70;99.90
9414;DHT22;4746;35.664;139.738;2023-11-19T14:43:31;13.60;99.90
9414;DHT22;4746;35.664;139.738;2023-11-19T14:45:59;13.60;99.90
9414;DHT22;4746;35.664;139.738;2023-11-19T14:48:29;13.70;99.90
9414;DHT22;4746;35.664;139.738;2023-11-19T14:50:57;13.60;99.90
9414;DHT22;4746;35.664;139.738;2023-11-19T14:53:24;13.60;99.90
9414;DHT22;4746;35.664;139.738;2023-11-19T14:55:52;13.60;99.90
9414;DHT22;4746;35.664;139.738;2023-11-19T14:58:21;13.60;99.90
9414;DHT22;4746;35.664;139.738;2023-11-19T15:00:48;13.60;99.90
9414;DHT22;4746;35.664;139.738;2023-11-19T15:03:16;13.60;99.90
9414;DHT22;4746;35.664;139.738;2023-11-19T15:05:46;13.60;99.90
9414;DHT22;4746;35.664;139.738;2023-11-19T15:08:14;13.60;99.90
9414;DHT22;4746;35.664;139.738;2023-11-19T15:10:44;13.60;99.90
9414;DHT22;4746;35.664;139.738;2023-11-19T15:13:14;13.60;99.90
9414;DHT22;4746;35.664;139.738;2023-11-19T15:15:41;13.50;99.90
9414;DHT22;4746;35.664;139.738;2023-11-19T15:18:09;13.40;99.90
9414;DHT22;4746;35.664;139.738;2023-11-19T15:20:36;13.40;99.90
9414;DHT22;4746;35.664;139.738;2023-11-19T15:23:04;13.40;99.90
9414;DHT22;4746;35.664;139.738;2023-11-19T15:25:31;13.30;99.90
9414;DHT22;4746;35.664;139.738;2023-11-19T15:27:59;13.20;99.90
9414;DHT22;4746;35.664;139.738;2023-11-19T15:30:26;13.20;99.90
9414;DHT22;4746;35.664;139.738;2023-11-19T15:32:54;13.20;99.90
9414;DHT22;4746;35.664;139.738;2023-11-19T15:35:21;13.20;99.90
9414;DHT22;4746;35.664;139.738;2023-11-19T15:37:49;13.20;99.90
9414;DHT22;4746;35.664;139.738;2023-11-19T15:40:17;13.20;99.90
9414;DHT22;4746;35.664;139.738;2023-11-19T15:42:44;13.20;99.90
9414;DHT22;4746;35.664;139.738;2023-11-19T15:45:13;13.10;99.90
9414;DHT22;4746;35.664;139.738;2023-11-19T15:47:42;13.10;99.90
9414;DHT22;4746;35.664;139.738;2023-11-19T15:50:13;13.10;99.90
9414;DHT22;4746;35.664;139.738;2023-11-19T15:52:40;13.10;99.90
9414;DHT22;4746;35.664;139.738;2023-11-19T15:55:10;13.10;99.90
9414;DHT22;4746;35.664;139.738;2023-11-19T15:57:40;13.10;99.90
9414;DHT22;4746;35.664;139.738;2023-11-19T16:00:10;13.10;99.90
9414;DHT22;4746;35.664;139.738;2023-11-19T16:02:37;13.10;99.90